Time;durP1;ratioP1;P1;durP2;ratioP2;P2;SDS_P1;SDS_P2;PMS_P1;PMS_P2;Temp;Humidity;BMP_temperature;BMP_pressure;BME280_temperature;BME280_humidity;BME280_pressure;Samples;Min_cycle;Max_cycle;Signal;HPM_P1;HPM_P2
2020/12/05 00:00:37;;;;;;;9.32;6.63;;;;;;;2.03;100.00;98435.28;10434344;28;20068;-71
2020/12/05 00:05:41;;;;;;;10.98;7.53;;;;;;;1.83;100.00;98431.81;10463383;28;20040;-71
2020/12/05 00:10:43;;;;;;;7.95;7.15;;;;;;;1.94;100.00;98446.06;10446845;28;20045;-71
2020/12/05 00:15:44;;;;;;;8.13;6.28;;;;;;;2.14;100.00;98456.41;10455960;28;20060;-71
2020/12/05 00:20:46;;;;;;;10.80;8.90;;;;;;;2.25;100.00;98436.84;10458284;28;20057;-71
2020/12/05 00:25:47;;;;;;;10.25;8.05;;;;;;;2.41;100.00;98443.94;10439610;28;20044;-71
2020/12/05 00:30:48;;;;;;;8.70;7.47;;;;;;;2.44;100.00;98447.22;10438829;28;20060;-70
2020/12/05 00:35:49;;;;;;;8.88;6.88;;;;;;;2.53;100.00;98456.34;10457651;28;20053;-71
2020/12/05 00:40:51;;;;;;;9.15;8.18;;;;;;;2.55;100.00;98457.13;10457289;28;20044;-70
2020/12/05 00:45:52;;;;;;;13.77;10.05;;;;;;;2.68;100.00;98453.88;10435221;28;20064;-70
2020/12/05 00:50:53;;;;;;;11.98;9.02;;;;;;;2.53;100.00;98449.41;10415743;28;20041;-71
2020/12/05 00:55:54;;;;;;;8.80;7.65;;;;;;;2.21;100.00;98430.09;10414837;28;20237;-71
2020/12/05 01:00:55;;;;;;;9.25;7.50;;;;;;;2.18;100.00;98447.56;10454763;28;20053;-71
2020/12/05 01:05:57;;;;;;;10.32;7.80;;;;;;;2.13;100.00;98447.78;10440318;28;20048;-71
2020/12/05 01:10:58;;;;;;;8.45;7.18;;;;;;;2.23;100.00;98456.00;10456042;28;20051;-71
2020/12/05 01:15:59;;;;;;;10.85;7.90;;;;;;;2.26;100.00;98474.88;10455487;28;20037;-71
2020/12/05 01:21:00;;;;;;;8.98;7.20;;;;;;;2.14;100.00;98474.59;10472335;28;20041;-71
2020/12/05 01:26:01;;;;;;;9.15;6.55;;;;;;;2.17;100.00;98483.13;10441501;28;20048;-71
2020/12/05 01:31:04;;;;;;;10.75;8.70;;;;;;;2.08;100.00;98493.06;10455157;28;20060;-71
2020/12/05 01:36:05;;;;;;;10.85;8.38;;;;;;;2.01;100.00;98489.06;10457927;28;20052;-71
2020/12/05 01:41:07;;;;;;;9.50;7.85;;;;;;;2.34;100.00;98510.94;10454873;28;20045;-71
2020/12/05 01:46:32;;;;;;;11.00;9.00;;;;;;;2.64;100.00;98517.34;10454261;28;20469;-71
2020/12/05 01:51:36;;;;;;;10.73;8.98;;;;;;;2.55;100.00;98515.16;10437329;28;20044;-71
2020/12/05 01:56:38;;;;;;;9.88;8.63;;;;;;;2.44;100.00;98516.53;10450133;28;20048;-71
2020/12/05 02:01:40;;;;;;;10.63;8.57;;;;;;;2.41;100.00;98514.09;10451866;28;20472;-71
2020/12/05 02:06:51;;;;;;;10.63;7.97;;;;;;;2.34;100.00;98528.28;10456388;28;20045;-70
2020/12/05 02:12:04;;;;;;;14.45;12.10;;;;;;;2.62;100.00;98534.75;10432878;28;20051;-71
2020/12/05 02:17:06;;;;;;;11.02;8.30;;;;;;;2.65;100.00;98531.19;10445768;28;20055;-71
2020/12/05 02:22:12;;;;;;;10.45;8.30;;;;;;;2.46;100.00;98538.97;10439609;28;20099;-71
2020/12/05 02:27:14;;;;;;;10.32;8.05;;;;;;;2.32;100.00;98524.91;10453042;28;20051;-71
2020/12/05 02:32:16;;;;;;;12.07;9.45;;;;;;;2.17;100.00;98526.44;10414611;28;20049;-70
2020/12/05 02:37:21;;;;;;;11.32;9.68;;;;;;;2.20;100.00;98544.47;10412017;28;20061;-71
2020/12/05 02:42:22;;;;;;;9.82;8.45;;;;;;;2.30;100.00;98550.94;10411714;28;20037;-71
2020/12/05 02:47:23;;;;;;;14.60;11.43;;;;;;;2.21;100.00;98539.19;10411634;28;20396;-71
2020/12/05 02:52:24;;;;;;;10.50;9.13;;;;;;;2.29;100.00;98544.06;10431248;28;20040;-71
2020/12/05 02:57:25;;;;;;;14.73;11.50;;;;;;;2.10;100.00;98545.75;10459402;28;20059;-71
2020/12/05 03:02:26;;;;;;;12.23;10.75;;;;;;;2.15;100.00;98536.03;10462029;28;20055;-71
2020/12/05 03:07:28;;;;;;;11.45;10.00;;;;;;;1.95;100.00;98538.63;10444762;28;20047;-70
2020/12/05 03:12:29;;;;;;;15.98;13.25;;;;;;;2.03;100.00;98544.34;10443106;28;20115;-70
2020/12/05 03:17:30;;;;;;;12.32;10.90;;;;;;;1.94;100.00;98529.16;10460081;28;20052;-71
2020/12/05 03:22:31;;;;;;;13.98;12.00;;;;;;;1.87;100.00;98537.19;10460401;28;20044;-71
2020/12/05 03:27:32;;;;;;;12.43;10.02;;;;;;;1.74;100.00;98548.19;10459060;28;20365;-71
2020/12/05 03:32:33;;;;;;;16.80;14.25;;;;;;;1.71;100.00;98545.69;10429201;28;20049;-71
2020/12/05 03:37:36;;;;;;;16.95;13.43;;;;;;;1.38;100.00;98538.38;10459474;28;20508;-70
2020/12/05 03:42:38;;;;;;;21.08;14.93;;;;;;;1.82;100.00;98579.84;10458632;28;20408;-71
2020/12/05 03:47:39;;;;;;;16.88;13.80;;;;;;;2.17;100.00;98596.56;10456785;28;20041;-71
2020/12/05 03:52:40;;;;;;;18.35;15.40;;;;;;;2.21;100.00;98595.50;10429321;28;20486;-71
2020/12/05 03:57:41;;;;;;;15.35;12.20;;;;;;;2.25;100.00;98610.91;10458469;28;20051;-71
2020/12/05 04:02:42;;;;;;;12.82;11.15;;;;;;;2.18;100.00;98619.00;10437220;28;20048;-71
2020/12/05 04:07:44;;;;;;;17.88;13.85;;;;;;;2.21;100.00;98617.13;10458418;28;20052;-70
2020/12/05 04:12:45;;;;;;;17.65;14.57;;;;;;;2.40;100.00;98621.53;10419608;28;20072;-71
2020/12/05 04:17:46;;;;;;;15.13;13.32;;;;;;;2.26;100.00;98624.72;10419957;28;20048;-71
2020/12/05 04:22:47;;;;;;;15.68;11.45;;;;;;;2.19;100.00;98629.31;10400615;28;20489;-71
2020/12/05 04:27:50;;;;;;;17.42;13.57;;;;;;;2.10;100.00;98631.47;10416542;28;20050;-71
2020/12/05 04:32:51;;;;;;;18.88;13.38;;;;;;;2.09;100.00;98640.19;10431890;28;20373;-71
2020/12/05 04:37:52;;;;;;;13.57;12.00;;;;;;;2.13;100.00;98639.13;10458462;28;20049;-71
2020/12/05 04:42:54;;;;;;;17.98;14.32;;;;;;;2.17;100.00;98648.50;10445826;28;20047;-71
2020/12/05 04:47:56;;;;;;;17.13;14.10;;;;;;;2.26;100.00;98650.69;10430660;28;20041;-71
2020/12/05 04:53:09;;;;;;;13.75;11.75;;;;;;;1.52;100.00;98626.88;10436306;28;20041;-71
2020/12/05 04:58:21;;;;;;;16.15;12.15;;;;;;;1.53;100.00;98635.50;10455889;28;20057;-71
2020/12/05 05:03:24;;;;;;;19.00;13.88;;;;;;;1.59;100.00;98632.66;10456643;28;20060;-71
2020/12/05 05:08:27;;;;;;;15.80;11.50;;;;;;;1.64;100.00;98638.53;10446554;28;20039;-71
2020/12/05 05:13:28;;;;;;;22.65;15.45;;;;;;;1.80;100.00;98657.78;10414801;28;20457;-71
2020/12/05 05:18:29;;;;;;;22.08;15.90;;;;;;;1.77;100.00;98652.72;10436768;28;20041;-71
2020/12/05 05:23:35;;;;;;;22.13;13.83;;;;;;;1.14;100.00;98645.69;10470969;28;20488;-70
2020/12/05 05:28:41;;;;;;;20.70;16.70;;;;;;;1.19;100.00;98650.69;10438710;28;20056;-71
2020/12/05 05:33:51;;;;;;;21.38;17.30;;;;;;;1.12;100.00;98661.28;10455711;28;20475;-70
2020/12/05 05:39:07;;;;;;;17.35;14.18;;;;;;;1.26;100.00;98675.47;10454822;28;20056;-71
2020/12/05 05:44:13;;;;;;;16.73;13.30;;;;;;;1.68;100.00;98685.97;10413468;28;20041;-71
2020/12/05 05:49:24;;;;;;;27.90;16.05;;;;;;;1.70;100.00;98707.53;10413345;28;20045;-71
2020/12/05 05:54:31;;;;;;;16.75;14.48;;;;;;;1.69;100.00;98711.88;10412814;28;20516;-71
2020/12/05 05:59:35;;;;;;;14.98;13.05;;;;;;;1.53;100.00;98731.53;10452058;28;20060;-70
2020/12/05 06:04:42;;;;;;;16.92;12.48;;;;;;;1.36;100.00;98731.31;10454046;28;20037;-71
2020/12/05 06:09:51;;;;;;;13.68;10.75;;;;;;;1.18;100.00;98745.78;10438011;28;20041;-70
2020/12/05 06:14:54;;;;;;;12.88;11.50;;;;;;;1.17;100.00;98757.09;10415689;28;20045;-71
2020/12/05 06:19:56;;;;;;;12.43;10.18;;;;;;;0.93;100.00;98752.75;10446069;28;20041;-71
2020/12/05 06:25:10;;;;;;;12.43;9.98;;;;;;;0.50;100.00;98750.81;10450662;28;20040;-71
2020/12/05 06:30:12;;;;;;;14.30;12.33;;;;;;;0.84;100.00;98795.38;10412829;28;20045;-70
2020/12/05 06:35:22;;;;;;;16.88;12.52;;;;;;;1.14;100.00;98822.88;10413176;28;20385;-71
2020/12/05 06:40:25;;;;;;;15.13;12.52;;;;;;;1.30;100.00;98827.50;10439892;28;20037;-71
2020/12/05 06:45:26;;;;;;;16.45;13.68;;;;;;;1.42;100.00;98835.69;10411539;28;20053;-70
2020/12/05 06:50:37;;;;;;;13.63;11.40;;;;;;;1.48;100.00;98839.84;10411366;28;20507;-71
2020/12/05 06:55:38;;;;;;;14.68;11.25;;;;;;;1.52;100.00;98850.03;10420720;28;20388;-71
2020/12/05 07:00:40;;;;;;;13.43;9.82;;;;;;;1.59;100.00;98863.63;10445753;28;20071;-71
2020/12/05 07:05:44;;;;;;;12.90;8.90;;;;;;;1.65;100.00;98863.44;10449145;28;20379;-70
2020/12/05 07:10:55;;;;;;;13.85;10.88;;;;;;;1.59;100.00;98868.00;10469340;28;20467;-70
2020/12/05 07:16:26;;;;;;;16.50;10.15;;;;;;;1.61;100.00;98885.19;10452058;28;20056;-71
2020/12/05 07:21:29;;;;;;;13.85;10.25;;;;;;;1.55;100.00;98890.63;10450370;28;20068;-71
2020/12/05 07:26:30;;;;;;;14.07;10.15;;;;;;;1.67;100.00;98891.94;10451680;28;20033;-71
2020/12/05 07:31:31;;;;;;;14.40;9.13;;;;;;;1.76;100.00;98888.97;10445764;28;20037;-70
2020/12/05 07:36:37;;;;;;;12.80;11.18;;;;;;;1.73;100.00;98892.56;10441089;28;20400;-71
2020/12/05 07:41:39;;;;;;;11.30;9.30;;;;;;;1.56;100.00;98902.69;10435966;28;20041;-71
2020/12/05 07:46:41;;;;;;;11.02;8.15;;;;;;;1.50;100.00;98915.88;10447533;28;20564;-70
2020/12/05 07:51:42;;;;;;;12.65;9.35;;;;;;;1.22;100.00;98904.75;10454338;28;20037;-69
2020/12/05 07:56:43;;;;;;;12.15;8.93;;;;;;;1.57;100.00;98934.69;10437640;28;20036;-69
2020/12/05 08:01:57;;;;;;;10.27;8.85;;;;;;;1.53;100.00;98939.97;10460472;28;20549;-69
2020/12/05 08:07:04;;;;;;;13.98;10.55;;;;;;;1.40;100.00;98943.03;10460489;28;20041;-69
2020/12/05 08:12:23;;;;;;;13.93;11.25;;;;;;;1.25;100.00;98953.94;10465607;28;20055;-69
2020/12/05 08:17:25;;;;;;;13.02;11.40;;;;;;;2.28;100.00;98997.03;10488229;28;20704;-69
2020/12/05 08:22:29;;;;;;;13.38;10.38;;;;;;;4.52;100.00;99012.94;10482733;28;20047;-71
2020/12/05 08:27:30;;;;;;;14.23;11.90;;;;;;;4.26;100.00;98989.81;10443518;28;20049;-72
2020/12/05 08:32:32;;;;;;;13.55;11.40;;;;;;;5.62;100.00;99021.63;10451482;28;20052;-69
2020/12/05 08:37:35;;;;;;;18.88;13.13;;;;;;;6.50;100.00;99018.88;10455112;28;20134;-69
2020/12/05 08:42:36;;;;;;;13.02;11.38;;;;;;;7.03;100.00;99031.66;10459213;28;20033;-69
2020/12/05 08:47:47;;;;;;;12.48;10.50;;;;;;;5.45;100.00;98994.63;10458888;28;20048;-69
2020/12/05 08:52:52;;;;;;;10.48;9.10;;;;;;;4.24;100.00;98975.16;10441366;28;20046;-69
2020/12/05 08:57:58;;;;;;;5.85;4.47;;;;;;;5.22;100.00;99001.81;10456151;28;20056;-70
2020/12/05 09:02:59;;;;;;;7.03;5.78;;;;;;;5.93;100.00;99009.69;10458403;28;20045;-69
2020/12/05 09:08:01;;;;;;;6.13;4.63;;;;;;;8.96;92.79;99016.75;10479357;28;20036;-69
2020/12/05 09:13:06;;;;;;;7.63;4.60;;;;;;;8.17;87.92;99003.25;10473040;28;20054;-69
2020/12/05 09:18:07;;;;;;;7.75;5.20;;;;;;;8.41;89.59;99016.72;10457705;28;20498;-70
2020/12/05 09:23:08;;;;;;;5.88;4.88;;;;;;;10.06;82.54;99031.44;10464428;28;20541;-70
2020/12/05 09:28:16;;;;;;;8.02;6.20;;;;;;;9.06;81.89;98996.84;10459756;28;20365;-70
2020/12/05 09:33:18;;;;;;;4.97;4.05;;;;;;;7.81;87.45;98985.31;10436151;28;20041;-70
2020/12/05 09:38:19;;;;;;;4.90;4.05;;;;;;;8.90;85.90;99044.25;10437370;28;20048;-69
2020/12/05 09:43:20;;;;;;;5.15;4.05;;;;;;;9.03;84.52;99039.09;10438313;28;20051;-70
2020/12/05 09:48:21;;;;;;;7.72;6.22;;;;;;;10.20;73.97;98999.81;10447459;28;20045;-70
2020/12/05 09:53:22;;;;;;;4.65;3.25;;;;;;;10.69;70.25;98993.78;10456213;28;20052;-70
2020/12/05 09:58:23;;;;;;;4.07;2.83;;;;;;;10.96;70.24;99007.66;10450685;28;20049;-70
2020/12/05 10:03:24;;;;;;;4.88;2.90;;;;;;;7.20;86.62;98965.25;10456039;28;20059;-70
2020/12/05 10:08:25;;;;;;;4.05;2.63;;;;;;;6.68;93.84;98977.81;10475512;28;20048;-70
2020/12/05 10:13:27;;;;;;;3.50;2.35;;;;;;;6.09;93.12;98969.59;10497843;28;20040;-69
2020/12/05 10:18:28;;;;;;;5.25;2.40;;;;;;;6.00;96.44;98979.69;10444221;28;20069;-69
2020/12/05 10:23:29;;;;;;;3.70;2.05;;;;;;;5.69;99.06;98964.69;10436979;28;20504;-69
2020/12/05 10:28:30;;;;;;;5.10;2.25;;;;;;;5.48;100.00;98963.16;10433734;28;20048;-69
2020/12/05 10:33:31;;;;;;;3.80;2.17;;;;;;;5.91;95.24;98980.16;10451443;28;20061;-69
2020/12/05 10:38:32;;;;;;;3.03;1.77;;;;;;;6.87;85.97;98994.16;10455711;28;20443;-69
2020/12/05 10:43:34;;;;;;;2.58;1.38;;;;;;;6.08;84.35;98988.81;10455092;28;20047;-69
2020/12/05 10:48:35;;;;;;;3.10;1.83;;;;;;;6.07;90.08;99015.88;10455013;28;20049;-69
2020/12/05 10:53:36;;;;;;;4.60;1.90;;;;;;;9.17;78.08;99053.97;10456134;28;20485;-69
2020/12/05 10:58:37;;;;;;;3.35;2.40;;;;;;;10.56;67.72;99020.97;10469276;28;20060;-70
2020/12/05 11:03:38;;;;;;;6.05;5.53;;;;;;;10.28;66.48;99026.47;10478196;28;20059;-70
2020/12/05 11:08:40;;;;;;;3.42;1.80;;;;;;;10.28;65.97;99015.94;10496423;28;20392;-70
2020/12/05 11:13:41;;;;;;;5.57;1.60;;;;;;;11.08;61.46;99019.09;10495516;28;20044;-70
2020/12/05 11:18:43;;;;;;;5.00;2.45;;;;;;;11.64;61.60;99052.72;10463503;28;20412;-70
2020/12/05 11:23:44;;;;;;;3.95;2.28;;;;;;;11.81;60.18;99045.41;10458578;28;20477;-70
2020/12/05 11:28:46;;;;;;;4.22;1.90;;;;;;;13.78;56.69;99084.59;10443338;28;20053;-70
2020/12/05 11:33:47;;;;;;;9.50;3.83;;;;;;;11.25;59.99;99024.84;10440544;28;20128;-70
2020/12/05 11:38:48;;;;;;;2.90;1.80;;;;;;;11.23;58.96;99024.09;10420724;28;20038;-70
2020/12/05 11:43:49;;;;;;;4.75;2.20;;;;;;;12.77;57.70;99055.59;10434443;28;20392;-70
2020/12/05 11:48:51;;;;;;;2.70;1.40;;;;;;;11.65;57.44;99017.47;10462300;28;20045;-70
2020/12/05 11:53:53;;;;;;;3.00;2.08;;;;;;;11.75;55.50;99021.16;10438515;28;20413;-70
2020/12/05 11:58:54;;;;;;;3.10;1.98;;;;;;;12.27;55.51;99062.13;10430120;28;20054;-70
2020/12/05 12:03:55;;;;;;;7.40;5.82;;;;;;;12.03;56.02;99071.88;10420120;28;20233;-70
2020/12/05 12:08:56;;;;;;;5.07;2.13;;;;;;;11.48;56.34;99043.41;10473574;28;20048;-70
2020/12/05 12:13:57;;;;;;;3.10;1.60;;;;;;;11.31;57.54;99053.38;10430496;28;20060;-70
2020/12/05 12:18:58;;;;;;;4.03;1.55;;;;;;;12.90;55.16;99109.16;10460833;28;20393;-71
2020/12/05 12:23:59;;;;;;;5.45;1.33;;;;;;;11.54;58.21;99095.72;10442883;28;20049;-70
2020/12/05 12:29:00;;;;;;;2.97;1.23;;;;;;;10.98;57.30;99059.28;10484484;28;20040;-70
2020/12/05 12:34:02;;;;;;;3.20;1.42;;;;;;;11.06;58.17;99085.06;10501570;28;20053;-70
2020/12/05 12:39:03;;;;;;;3.83;1.40;;;;;;;11.52;58.60;99090.56;10436653;28;20052;-70
2020/12/05 12:44:04;;;;;;;2.78;1.33;;;;;;;10.60;60.93;99077.75;10459158;28;20056;-70
2020/12/05 12:49:05;;;;;;;3.50;1.50;;;;;;;11.31;59.16;99086.81;10441816;28;20041;-70
2020/12/05 12:54:06;;;;;;;3.65;1.80;;;;;;;9.94;61.33;99059.44;10459403;28;20048;-69
2020/12/05 12:59:07;;;;;;;3.35;1.58;;;;;;;10.21;61.67;99083.06;10458518;28;20052;-69
2020/12/05 13:04:09;;;;;;;3.25;1.40;;;;;;;10.27;59.19;99072.16;10460192;28;20063;-69
2020/12/05 13:09:10;;;;;;;3.15;1.15;;;;;;;10.17;61.59;99098.25;10496205;28;20043;-69
2020/12/05 13:14:12;;;;;;;4.45;1.75;;;;;;;10.36;60.14;99092.59;10458155;28;20041;-69
2020/12/05 13:19:14;;;;;;;4.32;1.70;;;;;;;9.05;64.50;99094.97;10457581;28;20041;-69
2020/12/05 13:24:15;;;;;;;2.67;1.50;;;;;;;10.24;62.32;99122.34;10491475;28;20055;-69
2020/12/05 13:29:16;;;;;;;3.08;1.15;;;;;;;8.93;65.50;99107.09;10466229;28;20037;-70
2020/12/05 13:34:18;;;;;;;3.03;1.67;;;;;;;10.15;62.43;99138.72;10457159;28;20053;-69
2020/12/05 13:39:19;;;;;;;3.60;1.88;;;;;;;9.59;64.75;99119.59;10439658;28;20116;-69
2020/12/05 13:44:21;;;;;;;2.83;1.60;;;;;;;7.99;68.24;99108.31;10455394;28;20400;-69
2020/12/05 13:49:23;;;;;;;3.22;1.80;;;;;;;6.81;72.14;99096.59;10456648;28;20499;-69
2020/12/05 13:54:24;;;;;;;3.65;1.67;;;;;;;6.42;76.06;99110.00;10453368;28;20037;-69
2020/12/05 13:59:29;;;;;;;;;;;;;;;6.41;78.01;99117.00;10457849;28;20633;-69
2020/12/05 14:04:30;;;;;;;5.43;2.78;;;;;;;6.26;79.24;99128.22;10462207;28;20002;-69
2020/12/05 14:09:32;;;;;;;9.65;3.22;;;;;;;6.13;78.98;99131.50;10442578;28;20051;-69
2020/12/05 14:14:34;;;;;;;7.32;4.60;;;;;;;6.07;79.85;99111.75;10456041;28;20459;-70
2020/12/05 14:19:41;;;;;;;8.60;4.75;;;;;;;5.93;81.33;99116.84;10434530;28;20053;-69
2020/12/05 14:24:43;;;;;;;4.47;2.17;;;;;;;6.04;81.50;99133.66;10414915;28;20042;-69
2020/12/05 14:29:44;;;;;;;4.57;2.22;;;;;;;5.98;82.45;99126.13;10453526;28;20400;-69
2020/12/05 14:34:46;;;;;;;4.35;1.90;;;;;;;5.61;89.84;99134.00;10454940;28;20052;-69
2020/12/05 14:39:47;;;;;;;3.10;1.70;;;;;;;4.88;100.00;99124.38;10450233;28;20049;-69
2020/12/05 14:44:48;;;;;;;3.00;2.00;;;;;;;4.11;100.00;99102.53;10452016;28;20056;-69
2020/12/05 14:49:49;;;;;;;4.95;1.90;;;;;;;4.14;100.00;99121.50;10449462;28;20037;-69
2020/12/05 14:54:50;;;;;;;3.42;1.70;;;;;;;3.95;100.00;99137.94;10419610;28;20489;-69
2020/12/05 14:59:52;;;;;;;4.15;2.33;;;;;;;3.89;100.00;99139.06;10475364;28;20127;-69
2020/12/05 15:04:53;;;;;;;5.82;2.35;;;;;;;3.53;100.00;99140.50;10483190;28;20094;-69
2020/12/05 15:09:54;;;;;;;3.97;2.10;;;;;;;3.61;100.00;99164.50;10488857;28;20044;-69
2020/12/05 15:14:55;;;;;;;3.85;1.65;;;;;;;3.71;100.00;99179.69;10449547;28;20053;-69
2020/12/05 15:19:56;;;;;;;4.80;2.10;;;;;;;3.65;100.00;99184.31;10446445;28;20045;-69
2020/12/05 15:24:57;;;;;;;4.38;2.35;;;;;;;3.38;100.00;99162.78;10426471;28;20052;-69
2020/12/05 15:29:58;;;;;;;5.70;2.45;;;;;;;2.92;100.00;99154.13;10454141;28;20372;-69
2020/12/05 15:35:00;;;;;;;4.40;3.10;;;;;;;2.32;100.00;99164.91;10463141;28;20041;-69
2020/12/05 15:40:01;;;;;;;5.60;3.08;;;;;;;1.82;100.00;99162.22;10462070;28;20516;-69
2020/12/05 15:45:02;;;;;;;3.95;2.10;;;;;;;1.87;100.00;99164.66;10477924;28;20052;-69
2020/12/05 15:50:03;;;;;;;4.05;2.47;;;;;;;1.70;100.00;99143.59;10490465;28;20044;-70
2020/12/05 15:55:06;;;;;;;3.90;2.05;;;;;;;2.13;100.00;99176.81;10502158;28;20419;-70
2020/12/05 16:00:08;;;;;;;3.97;2.20;;;;;;;1.75;100.00;99137.38;10450930;28;20440;-71
2020/12/05 16:05:09;;;;;;;3.42;2.40;;;;;;;1.72;100.00;99152.19;10448771;28;20492;-71
2020/12/05 16:10:10;;;;;;;4.63;2.80;;;;;;;2.43;100.00;99206.09;10423728;28;20380;-71
2020/12/05 16:15:11;;;;;;;4.65;2.70;;;;;;;1.98;100.00;99180.75;10428490;28;20049;-71
2020/12/05 16:20:12;;;;;;;3.80;2.47;;;;;;;1.96;100.00;99199.88;10456631;28;20045;-71
2020/12/05 16:25:14;;;;;;;4.28;2.45;;;;;;;1.93;100.00;99219.00;10468486;28;20453;-71
2020/12/05 16:30:15;;;;;;;4.53;2.90;;;;;;;1.60;100.00;99214.84;10458167;28;20041;-71
2020/12/05 16:35:16;;;;;;;5.28;3.65;;;;;;;1.35;100.00;99225.09;10423591;28;20050;-71
2020/12/05 16:40:18;;;;;;;6.85;4.50;;;;;;;1.96;100.00;99272.59;10401517;28;20463;-71
2020/12/05 16:45:20;;;;;;;7.70;4.55;;;;;;;1.99;100.00;99243.94;10449355;28;20064;-71
2020/12/05 16:50:21;;;;;;;5.07;3.88;;;;;;;1.99;100.00;99249.13;10451991;28;20040;-71
2020/12/05 16:55:22;;;;;;;7.97;4.72;;;;;;;2.15;100.00;99246.00;10476405;28;20047;-71
2020/12/05 17:00:23;;;;;;;6.32;5.18;;;;;;;2.15;100.00;99243.41;10479278;28;20056;-71
2020/12/05 17:05:25;;;;;;;6.60;4.90;;;;;;;2.29;100.00;99250.75;10493993;28;20065;-71
2020/12/05 17:10:27;;;;;;;7.47;5.10;;;;;;;2.71;100.00;99276.22;10475016;28;20079;-71
2020/12/05 17:15:28;;;;;;;5.85;5.10;;;;;;;2.54;100.00;99262.03;10497740;28;20050;-71
2020/12/05 17:20:29;;;;;;;6.95;5.13;;;;;;;2.41;100.00;99244.31;10449536;28;20040;-71
2020/12/05 17:25:30;;;;;;;6.50;5.60;;;;;;;1.61;100.00;99238.16;10474347;28;20045;-71
2020/12/05 17:30:31;;;;;;;8.25;6.45;;;;;;;1.32;100.00;99256.34;10472418;28;20040;-71
2020/12/05 17:35:32;;;;;;;11.70;7.70;;;;;;;1.33;100.00;99263.25;10435402;28;20524;-71
2020/12/05 17:40:34;;;;;;;14.45;8.63;;;;;;;1.21;100.00;99277.38;10415586;28;20045;-71
2020/12/05 17:45:35;;;;;;;12.07;7.45;;;;;;;1.52;100.00;99293.78;10416996;28;20041;-71
2020/12/05 17:50:36;;;;;;;8.82;6.35;;;;;;;1.10;100.00;99264.72;10456101;28;20519;-71
2020/12/05 17:55:37;;;;;;;8.68;7.28;;;;;;;0.93;100.00;99274.69;10456117;28;20037;-71
2020/12/05 18:00:38;;;;;;;11.45;7.43;;;;;;;1.13;100.00;99290.56;10449866;28;20395;-71
2020/12/05 18:05:39;;;;;;;10.32;7.80;;;;;;;1.23;100.00;99305.88;10455249;28;20033;-71
2020/12/05 18:10:41;;;;;;;11.73;8.93;;;;;;;1.41;100.00;99315.75;10432448;28;20405;-71
2020/12/05 18:15:43;;;;;;;11.27;8.85;;;;;;;1.05;100.00;99294.25;10417702;28;20041;-71
2020/12/05 18:20:44;;;;;;;12.73;9.30;;;;;;;0.96;100.00;99300.53;10454538;28;20041;-71
2020/12/05 18:25:45;;;;;;;12.63;9.73;;;;;;;1.39;100.00;99322.72;10453941;28;20059;-71
2020/12/05 18:30:46;;;;;;;10.90;8.85;;;;;;;1.60;100.00;99324.72;10469705;28;20044;-71
2020/12/05 18:35:47;;;;;;;12.18;9.57;;;;;;;1.70;100.00;99333.09;10469898;28;20040;-71
2020/12/05 18:40:49;;;;;;;11.68;9.57;;;;;;;1.80;100.00;99356.16;10475007;28;20040;-71
2020/12/05 18:45:50;;;;;;;10.93;8.77;;;;;;;1.79;100.00;99351.84;10472336;28;20357;-71
2020/12/05 18:50:51;;;;;;;14.77;9.52;;;;;;;1.84;100.00;99352.56;10459473;28;20040;-71
2020/12/05 18:55:52;;;;;;;12.85;10.65;;;;;;;1.77;100.00;99332.88;10472745;28;20032;-71
2020/12/05 19:00:53;;;;;;;13.27;10.93;;;;;;;1.62;100.00;99338.50;10448135;28;20057;-71
2020/12/05 19:05:56;;;;;;;15.15;11.98;;;;;;;1.60;100.00;99331.66;10464742;28;20052;-71
2020/12/05 19:10:57;;;;;;;15.30;11.30;;;;;;;1.92;100.00;99351.50;10464535;28;20053;-71
2020/12/05 19:15:59;;;;;;;15.27;11.50;;;;;;;2.04;100.00;99343.34;10417892;28;20042;-71
2020/12/05 19:21:00;;;;;;;15.05;10.88;;;;;;;2.10;100.00;99327.56;10453404;28;20045;-71
2020/12/05 19:26:01;;;;;;;14.45;11.52;;;;;;;1.99;100.00;99333.09;10441460;28;20041;-71
2020/12/05 19:31:03;;;;;;;15.10;11.60;;;;;;;1.69;100.00;99340.03;10436355;28;20057;-71
2020/12/05 19:36:04;;;;;;;15.25;11.63;;;;;;;1.56;100.00;99346.47;10453041;28;20045;-71
2020/12/05 19:41:06;;;;;;;16.80;12.88;;;;;;;1.68;100.00;99355.63;10439669;28;20049;-71
2020/12/05 19:46:09;;;;;;;16.55;13.38;;;;;;;1.63;100.00;99347.13;10443514;28;20039;-71
2020/12/05 19:51:10;;;;;;;16.33;13.23;;;;;;;1.50;100.00;99349.25;10460874;28;20049;-71
2020/12/05 19:56:11;;;;;;;15.63;12.60;;;;;;;1.53;100.00;99369.91;10458486;28;20036;-71
2020/12/05 20:01:13;;;;;;;20.02;14.68;;;;;;;1.36;100.00;99359.97;10424739;28;20060;-71
2020/12/05 20:06:15;;;;;;;17.55;13.68;;;;;;;1.04;100.00;99331.47;10421305;28;20081;-71
2020/12/05 20:11:16;;;;;;;16.50;13.57;;;;;;;1.13;100.00;99355.41;10447890;28;20048;-71
2020/12/05 20:16:18;;;;;;;17.67;14.73;;;;;;;1.14;100.00;99364.91;10454320;28;20036;-71
2020/12/05 20:21:19;;;;;;;18.88;15.07;;;;;;;1.16;100.00;99349.31;10479445;28;20423;-71
2020/12/05 20:26:21;;;;;;;21.90;14.88;;;;;;;1.08;100.00;99338.28;10476408;28;20041;-71
2020/12/05 20:31:24;;;;;;;14.43;12.05;;;;;;;0.98;100.00;99322.09;10459070;28;20049;-71
2020/12/05 20:36:25;;;;;;;20.40;14.93;;;;;;;1.06;100.00;99330.53;10440658;28;20037;-71
2020/12/05 20:41:26;;;;;;;16.08;13.00;;;;;;;1.20;100.00;99334.50;10452476;28;20055;-71
2020/12/05 20:46:27;;;;;;;14.05;11.48;;;;;;;1.04;100.00;99324.53;10457756;28;20044;-71
2020/12/05 20:51:28;;;;;;;14.75;11.85;;;;;;;1.03;100.00;99325.41;10454238;28;20496;-71
2020/12/05 20:56:29;;;;;;;15.90;11.98;;;;;;;0.92;100.00;99319.66;10456352;28;20051;-71
2020/12/05 21:01:30;;;;;;;13.75;11.18;;;;;;;0.92;100.00;99322.25;10438835;28;20064;-71
2020/12/05 21:06:31;;;;;;;16.65;13.18;;;;;;;0.68;100.00;99322.88;10437766;28;20041;-71
2020/12/05 21:11:34;;;;;;;18.77;15.13;;;;;;;0.49;100.00;99337.19;10459300;28;20052;-71
2020/12/05 21:16:36;;;;;;;22.13;16.13;;;;;;;0.61;100.00;99347.22;10476600;28;20115;-71
2020/12/05 21:21:37;;;;;;;17.48;13.93;;;;;;;0.65;100.00;99372.19;10476724;28;20123;-71
2020/12/05 21:26:38;;;;;;;18.13;14.30;;;;;;;0.73;100.00;99381.50;10487639;28;20048;-71
2020/12/05 21:31:40;;;;;;;15.60;12.27;;;;;;;0.93;100.00;99400.88;10470118;28;20041;-71
2020/12/05 21:36:41;;;;;;;20.60;16.05;;;;;;;0.91;100.00;99421.69;10436876;28;20049;-71
2020/12/05 21:41:42;;;;;;;18.33;15.25;;;;;;;0.97;100.00;99424.13;10457177;28;20720;-71
2020/12/05 21:46:44;;;;;;;19.30;15.23;;;;;;;0.96;100.00;99422.41;10454658;28;20443;-71
2020/12/05 21:51:49;;;;;;;19.38;16.25;;;;;;;1.01;100.00;99419.69;10444692;28;20068;-71
2020/12/05 21:56:53;;;;;;;;;;;;;;;1.01;100.00;99417.09;10439000;28;20052;-72
2020/12/05 22:01:55;;;;;;;21.95;17.75;;;;;;;1.30;100.00;99455.28;10443594;28;20004;-72
2020/12/05 22:06:57;;;;;;;23.23;17.45;;;;;;;1.36;100.00;99468.09;10455450;28;20497;-71
2020/12/05 22:11:58;;;;;;;19.95;15.80;;;;;;;1.29;100.00;99487.31;10446892;28;20389;-71
2020/12/05 22:17:00;;;;;;;22.08;16.48;;;;;;;1.41;100.00;99474.03;10411165;28;20053;-71
2020/12/05 22:22:01;;;;;;;19.90;16.50;;;;;;;1.17;100.00;99449.56;10456808;28;20139;-71
2020/12/05 22:27:03;;;;;;;22.83;17.80;;;;;;;0.95;100.00;99428.47;10456605;28;20124;-71
2020/12/05 22:32:04;;;;;;;26.48;19.15;;;;;;;1.05;100.00;99410.97;10437441;28;20051;-71
2020/12/05 22:37:06;;;;;;;23.95;18.38;;;;;;;0.99;100.00;99383.44;10455699;28;20079;-71
2020/12/05 22:42:07;;;;;;;21.58;16.90;;;;;;;1.04;100.00;99389.34;10448384;28;20049;-72
2020/12/05 22:47:14;;;;;;;24.33;17.67;;;;;;;0.86;100.00;99374.25;10441608;28;20040;-71
2020/12/05 22:52:16;;;;;;;25.50;18.80;;;;;;;0.98;100.00;99379.16;10435883;28;20049;-71
2020/12/05 22:57:17;;;;;;;25.17;19.60;;;;;;;0.93;100.00;99396.53;10438286;28;20041;-71
2020/12/05 23:02:18;;;;;;;23.08;18.17;;;;;;;1.07;100.00;99411.78;10420804;28;20061;-71
2020/12/05 23:07:19;;;;;;;24.17;18.90;;;;;;;0.81;100.00;99412.41;10426012;28;20049;-71
2020/12/05 23:12:20;;;;;;;26.33;20.38;;;;;;;0.59;100.00;99403.41;10428366;28;20052;-71